sensor_id;sensor_type;location;lat;lon;timestamp;P1;durP1;ratioP1;P2;durP2;ratioP2
18224;SDS011;9237;48.590;8.854;2023-02-22T00:01:14;0.90;;;0.90;;
18224;SDS011;9237;48.590;8.854;2023-02-22T00:03:53;0.83;;;0.83;;
18224;SDS011;9237;48.590;8.854;2023-02-22T00:06:21;0.80;;;0.80;;
18224;SDS011;9237;48.590;8.854;2023-02-22T00:08:49;0.90;;;0.90;;
18224;SDS011;9237;48.590;8.854;2023-02-22T00:11:17;0.90;;;0.90;;
18224;SDS011;9237;48.590;8.854;2023-02-22T00:13:44;0.80;;;0.80;;
18224;SDS011;9237;48.590;8.854;2023-02-22T00:16:15;0.80;;;0.80;;
18224;SDS011;9237;48.590;8.854;2023-02-22T00:18:43;0.80;;;0.80;;
18224;SDS011;9237;48.590;8.854;2023-02-22T00:21:12;0.70;;;0.70;;
18224;SDS011;9237;48.590;8.854;2023-02-22T00:23:41;0.70;;;0.70;;
18224;SDS011;9237;48.590;8.854;2023-02-22T00:26:10;0.90;;;0.90;;
18224;SDS011;9237;48.590;8.854;2023-02-22T00:28:42;0.80;;;0.80;;
18224;SDS011;9237;48.590;8.854;2023-02-22T00:31:09;0.90;;;0.90;;
18224;SDS011;9237;48.590;8.854;2023-02-22T00:33:37;0.90;;;0.90;;
18224;SDS011;9237;48.590;8.854;2023-02-22T00:36:05;0.90;;;0.90;;
18224;SDS011;9237;48.590;8.854;2023-02-22T00:38:33;0.80;;;0.80;;
18224;SDS011;9237;48.590;8.854;2023-02-22T00:41:00;0.90;;;0.90;;
18224;SDS011;9237;48.590;8.854;2023-02-22T00:43:27;0.90;;;0.90;;
18224;SDS011;9237;48.590;8.854;2023-02-22T00:45:54;0.90;;;0.90;;
18224;SDS011;9237;48.590;8.854;2023-02-22T00:48:21;0.90;;;0.90;;
18224;SDS011;9237;48.590;8.854;2023-02-22T00:50:48;0.80;;;0.80;;
18224;SDS011;9237;48.590;8.854;2023-02-22T00:53:19;0.90;;;0.90;;
18224;SDS011;9237;48.590;8.854;2023-02-22T00:55:48;0.90;;;0.90;;
18224;SDS011;9237;48.590;8.854;2023-02-22T00:58:15;0.70;;;0.70;;
18224;SDS011;9237;48.590;8.854;2023-02-22T01:00:43;0.80;;;0.80;;
18224;SDS011;9237;48.590;8.854;2023-02-22T01:03:11;0.90;;;0.90;;
18224;SDS011;9237;48.590;8.854;2023-02-22T01:05:39;0.90;;;0.90;;
18224;SDS011;9237;48.590;8.854;2023-02-22T01:08:07;0.90;;;0.90;;
18224;SDS011;9237;48.590;8.854;2023-02-22T01:10:35;0.90;;;0.90;;
18224;SDS011;9237;48.590;8.854;2023-02-22T01:13:04;0.90;;;0.90;;
18224;SDS011;9237;48.590;8.854;2023-02-22T01:15:36;0.80;;;0.80;;
18224;SDS011;9237;48.590;8.854;2023-02-22T01:18:04;0.90;;;0.90;;
18224;SDS011;9237;48.590;8.854;2023-02-22T01:20:31;0.90;;;0.90;;
18224;SDS011;9237;48.590;8.854;2023-02-22T01:22:59;0.90;;;0.90;;
18224;SDS011;9237;48.590;8.854;2023-02-22T01:25:30;0.90;;;0.90;;
18224;SDS011;9237;48.590;8.854;2023-02-22T01:27:58;0.90;;;0.90;;
18224;SDS011;9237;48.590;8.854;2023-02-22T01:30:28;0.90;;;0.90;;
18224;SDS011;9237;48.590;8.854;2023-02-22T01:32:57;0.90;;;0.90;;
18224;SDS011;9237;48.590;8.854;2023-02-22T01:35:25;0.90;;;0.90;;
18224;SDS011;9237;48.590;8.854;2023-02-22T01:37:54;0.80;;;0.80;;
18224;SDS011;9237;48.590;8.854;2023-02-22T01:40:22;0.80;;;0.80;;
18224;SDS011;9237;48.590;8.854;2023-02-22T01:42:51;0.90;;;0.90;;
18224;SDS011;9237;48.590;8.854;2023-02-22T01:45:39;0.90;;;0.90;;
18224;SDS011;9237;48.590;8.854;2023-02-22T01:48:11;0.90;;;0.90;;
18224;SDS011;9237;48.590;8.854;2023-02-22T01:50:42;0.90;;;0.90;;
18224;SDS011;9237;48.590;8.854;2023-02-22T01:53:11;0.80;;;0.80;;
18224;SDS011;9237;48.590;8.854;2023-02-22T01:55:40;0.90;;;0.90;;
18224;SDS011;9237;48.590;8.854;2023-02-22T01:58:08;0.90;;;0.90;;
18224;SDS011;9237;48.590;8.854;2023-02-22T02:00:35;0.90;;;0.90;;
18224;SDS011;9237;48.590;8.854;2023-02-22T02:03:06;0.80;;;0.80;;
18224;SDS011;9237;48.590;8.854;2023-02-22T02:05:36;0.80;;;0.80;;
18224;SDS011;9237;48.590;8.854;2023-02-22T02:08:04;0.90;;;0.90;;
18224;SDS011;9237;48.590;8.854;2023-02-22T02:10:38;0.90;;;0.90;;
18224;SDS011;9237;48.590;8.854;2023-02-22T02:13:06;0.90;;;0.90;;
18224;SDS011;9237;48.590;8.854;2023-02-22T02:15:34;0.90;;;0.90;;
18224;SDS011;9237;48.590;8.854;2023-02-22T02:18:02;0.90;;;0.90;;
18224;SDS011;9237;48.590;8.854;2023-02-22T02:20:34;0.80;;;0.80;;
18224;SDS011;9237;48.590;8.854;2023-02-22T02:23:25;0.90;;;0.90;;
18224;SDS011;9237;48.590;8.854;2023-02-22T02:26:16;0.80;;;0.80;;
18224;SDS011;9237;48.590;8.854;2023-02-22T02:29:30;0.90;;;0.90;;
18224;SDS011;9237;48.590;8.854;2023-02-22T02:32:20;0.70;;;0.70;;
18224;SDS011;9237;48.590;8.854;2023-02-22T02:34:54;0.90;;;0.90;;
18224;SDS011;9237;48.590;8.854;2023-02-22T02:37:31;0.90;;;0.90;;
18224;SDS011;9237;48.590;8.854;2023-02-22T02:40:05;0.90;;;0.90;;
18224;SDS011;9237;48.590;8.854;2023-02-22T02:42:37;0.90;;;0.90;;
18224;SDS011;9237;48.590;8.854;2023-02-22T02:45:09;0.90;;;0.90;;
18224;SDS011;9237;48.590;8.854;2023-02-22T02:47:43;1.00;;;1.00;;
18224;SDS011;9237;48.590;8.854;2023-02-22T02:50:16;1.00;;;1.00;;
18224;SDS011;9237;48.590;8.854;2023-02-22T02:52:48;0.80;;;0.80;;
18224;SDS011;9237;48.590;8.854;2023-02-22T02:55:16;0.90;;;0.90;;
18224;SDS011;9237;48.590;8.854;2023-02-22T02:57:43;0.90;;;0.90;;
18224;SDS011;9237;48.590;8.854;2023-02-22T03:00:11;0.87;;;0.87;;
18224;SDS011;9237;48.590;8.854;2023-02-22T03:02:50;0.80;;;0.80;;
18224;SDS011;9237;48.590;8.854;2023-02-22T03:05:32;0.90;;;0.90;;
18224;SDS011;9237;48.590;8.854;2023-02-22T03:08:11;0.90;;;0.90;;
18224;SDS011;9237;48.590;8.854;2023-02-22T03:10:47;0.80;;;0.80;;
18224;SDS011;9237;48.590;8.854;2023-02-22T03:13:24;0.90;;;0.90;;
18224;SDS011;9237;48.590;8.854;2023-02-22T03:15:58;0.90;;;0.90;;
18224;SDS011;9237;48.590;8.854;2023-02-22T03:18:36;0.77;;;0.77;;
18224;SDS011;9237;48.590;8.854;2023-02-22T03:21:11;0.90;;;0.90;;
18224;SDS011;9237;48.590;8.854;2023-02-22T03:23:47;0.80;;;0.80;;
18224;SDS011;9237;48.590;8.854;2023-02-22T03:26:25;0.90;;;0.90;;
18224;SDS011;9237;48.590;8.854;2023-02-22T03:29:01;0.83;;;0.83;;
18224;SDS011;9237;48.590;8.854;2023-02-22T03:31:31;0.80;;;0.80;;
18224;SDS011;9237;48.590;8.854;2023-02-22T03:34:04;0.87;;;0.87;;
18224;SDS011;9237;48.590;8.854;2023-02-22T03:36:35;0.80;;;0.80;;
18224;SDS011;9237;48.590;8.854;2023-02-22T03:39:06;0.87;;;0.87;;
18224;SDS011;9237;48.590;8.854;2023-02-22T03:41:40;0.90;;;0.90;;
18224;SDS011;9237;48.590;8.854;2023-02-22T03:44:16;0.90;;;0.90;;
18224;SDS011;9237;48.590;8.854;2023-02-22T03:46:46;0.80;;;0.80;;
18224;SDS011;9237;48.590;8.854;2023-02-22T03:49:17;0.90;;;0.90;;
18224;SDS011;9237;48.590;8.854;2023-02-22T03:51:50;0.90;;;0.90;;
18224;SDS011;9237;48.590;8.854;2023-02-22T03:54:17;0.80;;;0.80;;
18224;SDS011;9237;48.590;8.854;2023-02-22T03:56:44;0.90;;;0.90;;
18224;SDS011;9237;48.590;8.854;2023-02-22T03:59:15;0.90;;;0.90;;
18224;SDS011;9237;48.590;8.854;2023-02-22T04:01:42;0.87;;;0.87;;
18224;SDS011;9237;48.590;8.854;2023-02-22T04:04:09;0.90;;;0.90;;
18224;SDS011;9237;48.590;8.854;2023-02-22T04:06:37;0.90;;;0.90;;
18224;SDS011;9237;48.590;8.854;2023-02-22T04:09:04;0.80;;;0.80;;
18224;SDS011;9237;48.590;8.854;2023-02-22T04:11:32;0.80;;;0.80;;
18224;SDS011;9237;48.590;8.854;2023-02-22T04:13:59;0.87;;;0.87;;
18224;SDS011;9237;48.590;8.854;2023-02-22T04:16:26;0.90;;;0.90;;
18224;SDS011;9237;48.590;8.854;2023-02-22T04:18:52;0.90;;;0.90;;
18224;SDS011;9237;48.590;8.854;2023-02-22T04:21:19;0.90;;;0.90;;
18224;SDS011;9237;48.590;8.854;2023-02-22T04:23:47;0.90;;;0.90;;
18224;SDS011;9237;48.590;8.854;2023-02-22T04:26:14;0.83;;;0.83;;
18224;SDS011;9237;48.590;8.854;2023-02-22T04:28:41;0.90;;;0.90;;
18224;SDS011;9237;48.590;8.854;2023-02-22T04:31:08;0.90;;;0.90;;
18224;SDS011;9237;48.590;8.854;2023-02-22T04:33:34;0.90;;;0.90;;
18224;SDS011;9237;48.590;8.854;2023-02-22T04:36:01;0.90;;;0.90;;
18224;SDS011;9237;48.590;8.854;2023-02-22T04:38:29;0.90;;;0.90;;
18224;SDS011;9237;48.590;8.854;2023-02-22T04:40:57;0.80;;;0.80;;
18224;SDS011;9237;48.590;8.854;2023-02-22T04:43:24;0.90;;;0.90;;
18224;SDS011;9237;48.590;8.854;2023-02-22T04:45:50;0.80;;;0.80;;
18224;SDS011;9237;48.590;8.854;2023-02-22T04:48:17;0.90;;;0.90;;
18224;SDS011;9237;48.590;8.854;2023-02-22T04:50:44;0.90;;;0.90;;
18224;SDS011;9237;48.590;8.854;2023-02-22T04:53:11;0.80;;;0.80;;
18224;SDS011;9237;48.590;8.854;2023-02-22T04:55:38;0.90;;;0.90;;
18224;SDS011;9237;48.590;8.854;2023-02-22T04:58:06;0.90;;;0.90;;
18224;SDS011;9237;48.590;8.854;2023-02-22T05:00:33;0.90;;;0.90;;
18224;SDS011;9237;48.590;8.854;2023-02-22T05:03:00;0.90;;;0.90;;
18224;SDS011;9237;48.590;8.854;2023-02-22T05:05:27;0.83;;;0.83;;
18224;SDS011;9237;48.590;8.854;2023-02-22T05:07:54;0.80;;;0.80;;
18224;SDS011;9237;48.590;8.854;2023-02-22T05:10:20;1.10;;;1.10;;
18224;SDS011;9237;48.590;8.854;2023-02-22T05:12:48;0.90;;;0.90;;
18224;SDS011;9237;48.590;8.854;2023-02-22T05:15:17;0.90;;;0.90;;
18224;SDS011;9237;48.590;8.854;2023-02-22T05:17:45;1.00;;;1.00;;
18224;SDS011;9237;48.590;8.854;2023-02-22T05:20:15;0.80;;;0.80;;
18224;SDS011;9237;48.590;8.854;2023-02-22T05:22:47;0.70;;;0.70;;
18224;SDS011;9237;48.590;8.854;2023-02-22T05:25:15;0.90;;;0.90;;
18224;SDS011;9237;48.590;8.854;2023-02-22T05:27:46;0.90;;;0.90;;
18224;SDS011;9237;48.590;8.854;2023-02-22T05:30:17;0.87;;;0.87;;
18224;SDS011;9237;48.590;8.854;2023-02-22T05:32:44;1.00;;;1.00;;
18224;SDS011;9237;48.590;8.854;2023-02-22T05:35:12;0.97;;;0.97;;
18224;SDS011;9237;48.590;8.854;2023-02-22T05:37:39;0.90;;;0.90;;
18224;SDS011;9237;48.590;8.854;2023-02-22T05:40:06;0.90;;;0.90;;
18224;SDS011;9237;48.590;8.854;2023-02-22T05:42:33;0.90;;;0.90;;
18224;SDS011;9237;48.590;8.854;2023-02-22T05:44:59;0.90;;;0.90;;
18224;SDS011;9237;48.590;8.854;2023-02-22T05:47:29;1.00;;;1.00;;
18224;SDS011;9237;48.590;8.854;2023-02-22T05:49:55;0.90;;;0.90;;
18224;SDS011;9237;48.590;8.854;2023-02-22T05:52:22;1.00;;;1.00;;
18224;SDS011;9237;48.590;8.854;2023-02-22T05:54:49;0.80;;;0.80;;
18224;SDS011;9237;48.590;8.854;2023-02-22T05:57:16;0.90;;;0.90;;
18224;SDS011;9237;48.590;8.854;2023-02-22T05:59:43;0.80;;;0.80;;
18224;SDS011;9237;48.590;8.854;2023-02-22T06:02:09;0.90;;;0.90;;
18224;SDS011;9237;48.590;8.854;2023-02-22T06:04:37;0.90;;;0.90;;
18224;SDS011;9237;48.590;8.854;2023-02-22T06:07:04;0.90;;;0.90;;
18224;SDS011;9237;48.590;8.854;2023-02-22T06:09:31;1.00;;;1.00;;
18224;SDS011;9237;48.590;8.854;2023-02-22T06:11:58;0.90;;;0.90;;
18224;SDS011;9237;48.590;8.854;2023-02-22T06:14:25;0.90;;;0.90;;
18224;SDS011;9237;48.590;8.854;2023-02-22T06:16:52;1.00;;;1.00;;
18224;SDS011;9237;48.590;8.854;2023-02-22T06:19:18;0.90;;;0.90;;
18224;SDS011;9237;48.590;8.854;2023-02-22T06:21:49;0.90;;;0.90;;
18224;SDS011;9237;48.590;8.854;2023-02-22T06:24:16;0.90;;;0.90;;
18224;SDS011;9237;48.590;8.854;2023-02-22T06:26:43;0.90;;;0.90;;
18224;SDS011;9237;48.590;8.854;2023-02-22T06:29:09;0.90;;;0.90;;
18224;SDS011;9237;48.590;8.854;2023-02-22T06:31:36;0.80;;;0.80;;
18224;SDS011;9237;48.590;8.854;2023-02-22T06:34:03;0.90;;;0.90;;
18224;SDS011;9237;48.590;8.854;2023-02-22T06:36:30;0.93;;;0.93;;
18224;SDS011;9237;48.590;8.854;2023-02-22T06:38:58;0.90;;;0.90;;
18224;SDS011;9237;48.590;8.854;2023-02-22T06:41:25;0.90;;;0.90;;
18224;SDS011;9237;48.590;8.854;2023-02-22T06:43:51;0.80;;;0.80;;
18224;SDS011;9237;48.590;8.854;2023-02-22T06:46:18;0.90;;;0.90;;
18224;SDS011;9237;48.590;8.854;2023-02-22T06:48:45;0.90;;;0.90;;
18224;SDS011;9237;48.590;8.854;2023-02-22T06:51:14;0.80;;;0.80;;
18224;SDS011;9237;48.590;8.854;2023-02-22T06:53:40;0.90;;;0.90;;
18224;SDS011;9237;48.590;8.854;2023-02-22T06:56:09;0.90;;;0.90;;
18224;SDS011;9237;48.590;8.854;2023-02-22T06:58:35;0.80;;;0.80;;
18224;SDS011;9237;48.590;8.854;2023-02-22T07:01:02;0.87;;;0.87;;
18224;SDS011;9237;48.590;8.854;2023-02-22T07:03:31;0.90;;;0.90;;
18224;SDS011;9237;48.590;8.854;2023-02-22T07:05:58;1.00;;;1.00;;
18224;SDS011;9237;48.590;8.854;2023-02-22T07:08:26;0.90;;;0.90;;
18224;SDS011;9237;48.590;8.854;2023-02-22T07:10:53;0.90;;;0.90;;
18224;SDS011;9237;48.590;8.854;2023-02-22T07:13:21;0.80;;;0.80;;
18224;SDS011;9237;48.590;8.854;2023-02-22T07:15:48;0.90;;;0.90;;
18224;SDS011;9237;48.590;8.854;2023-02-22T07:18:14;0.87;;;0.87;;
18224;SDS011;9237;48.590;8.854;2023-02-22T07:20:41;0.80;;;0.80;;
18224;SDS011;9237;48.590;8.854;2023-02-22T07:23:08;0.80;;;0.80;;
18224;SDS011;9237;48.590;8.854;2023-02-22T07:25:35;0.80;;;0.80;;
18224;SDS011;9237;48.590;8.854;2023-02-22T07:28:02;0.80;;;0.80;;
18224;SDS011;9237;48.590;8.854;2023-02-22T07:30:31;0.80;;;0.80;;
18224;SDS011;9237;48.590;8.854;2023-02-22T07:32:59;0.80;;;0.80;;
18224;SDS011;9237;48.590;8.854;2023-02-22T07:35:28;0.90;;;0.90;;
18224;SDS011;9237;48.590;8.854;2023-02-22T07:37:56;0.80;;;0.80;;
18224;SDS011;9237;48.590;8.854;2023-02-22T07:40:24;0.70;;;0.70;;
18224;SDS011;9237;48.590;8.854;2023-02-22T07:42:52;0.80;;;0.80;;
18224;SDS011;9237;48.590;8.854;2023-02-22T07:45:21;0.80;;;0.80;;
18224;SDS011;9237;48.590;8.854;2023-02-22T07:47:50;0.80;;;0.80;;
18224;SDS011;9237;48.590;8.854;2023-02-22T07:50:17;0.80;;;0.80;;
18224;SDS011;9237;48.590;8.854;2023-02-22T07:52:45;0.83;;;0.83;;
18224;SDS011;9237;48.590;8.854;2023-02-22T07:55:13;0.90;;;0.90;;
18224;SDS011;9237;48.590;8.854;2023-02-22T07:57:42;0.80;;;0.80;;
18224;SDS011;9237;48.590;8.854;2023-02-22T08:00:09;0.80;;;0.80;;
18224;SDS011;9237;48.590;8.854;2023-02-22T08:02:38;0.80;;;0.80;;
18224;SDS011;9237;48.590;8.854;2023-02-22T08:05:07;0.80;;;0.80;;
18224;SDS011;9237;48.590;8.854;2023-02-22T08:07:35;0.80;;;0.80;;
18224;SDS011;9237;48.590;8.854;2023-02-22T08:10:02;0.80;;;0.80;;
18224;SDS011;9237;48.590;8.854;2023-02-22T08:12:31;0.80;;;0.80;;
18224;SDS011;9237;48.590;8.854;2023-02-22T08:14:57;0.80;;;0.80;;
18224;SDS011;9237;48.590;8.854;2023-02-22T08:17:24;0.70;;;0.70;;
18224;SDS011;9237;48.590;8.854;2023-02-22T08:19:51;0.90;;;0.90;;
18224;SDS011;9237;48.590;8.854;2023-02-22T08:22:19;0.70;;;0.70;;
18224;SDS011;9237;48.590;8.854;2023-02-22T08:24:46;0.70;;;0.70;;
18224;SDS011;9237;48.590;8.854;2023-02-22T08:27:12;0.70;;;0.70;;
18224;SDS011;9237;48.590;8.854;2023-02-22T08:29:39;0.70;;;0.70;;
18224;SDS011;9237;48.590;8.854;2023-02-22T08:32:06;0.70;;;0.70;;
18224;SDS011;9237;48.590;8.854;2023-02-22T08:34:33;0.70;;;0.70;;
18224;SDS011;9237;48.590;8.854;2023-02-22T08:37:00;0.70;;;0.70;;
18224;SDS011;9237;48.590;8.854;2023-02-22T08:39:28;0.70;;;0.70;;
18224;SDS011;9237;48.590;8.854;2023-02-22T08:41:55;0.60;;;0.60;;
18224;SDS011;9237;48.590;8.854;2023-02-22T08:44:23;0.60;;;0.60;;
18224;SDS011;9237;48.590;8.854;2023-02-22T08:46:49;0.70;;;0.70;;
18224;SDS011;9237;48.590;8.854;2023-02-22T08:49:16;0.70;;;0.70;;
18224;SDS011;9237;48.590;8.854;2023-02-22T08:51:44;0.70;;;0.70;;
18224;SDS011;9237;48.590;8.854;2023-02-22T08:54:11;0.70;;;0.70;;
18224;SDS011;9237;48.590;8.854;2023-02-22T08:56:40;0.70;;;0.70;;
18224;SDS011;9237;48.590;8.854;2023-02-22T08:59:08;0.70;;;0.70;;
18224;SDS011;9237;48.590;8.854;2023-02-22T09:01:35;0.60;;;0.60;;
18224;SDS011;9237;48.590;8.854;2023-02-22T09:04:02;0.70;;;0.70;;
18224;SDS011;9237;48.590;8.854;2023-02-22T09:06:29;0.70;;;0.70;;
18224;SDS011;9237;48.590;8.854;2023-02-22T09:08:56;0.70;;;0.70;;
18224;SDS011;9237;48.590;8.854;2023-02-22T09:11:22;0.60;;;0.60;;
18224;SDS011;9237;48.590;8.854;2023-02-22T09:13:51;0.60;;;0.60;;
18224;SDS011;9237;48.590;8.854;2023-02-22T09:16:17;0.60;;;0.60;;
18224;SDS011;9237;48.590;8.854;2023-02-22T09:18:44;0.60;;;0.60;;
18224;SDS011;9237;48.590;8.854;2023-02-22T09:21:11;0.60;;;0.60;;
18224;SDS011;9237;48.590;8.854;2023-02-22T09:23:38;0.60;;;0.60;;
18224;SDS011;9237;48.590;8.854;2023-02-22T09:26:06;0.63;;;0.63;;
18224;SDS011;9237;48.590;8.854;2023-02-22T09:28:33;0.60;;;0.60;;
18224;SDS011;9237;48.590;8.854;2023-02-22T09:31:01;0.60;;;0.60;;
18224;SDS011;9237;48.590;8.854;2023-02-22T09:33:28;0.60;;;0.60;;
18224;SDS011;9237;48.590;8.854;2023-02-22T09:35:55;0.60;;;0.60;;
18224;SDS011;9237;48.590;8.854;2023-02-22T09:38:24;0.60;;;0.60;;
18224;SDS011;9237;48.590;8.854;2023-02-22T09:40:54;0.60;;;0.60;;
18224;SDS011;9237;48.590;8.854;2023-02-22T09:43:36;0.70;;;0.70;;
18224;SDS011;9237;48.590;8.854;2023-02-22T09:46:11;0.60;;;0.60;;
18224;SDS011;9237;48.590;8.854;2023-02-22T09:49:01;0.60;;;0.60;;
18224;SDS011;9237;48.590;8.854;2023-02-22T09:51:32;0.60;;;0.60;;
18224;SDS011;9237;48.590;8.854;2023-02-22T09:54:10;0.60;;;0.60;;
18224;SDS011;9237;48.590;8.854;2023-02-22T09:56:42;0.67;;;0.67;;
18224;SDS011;9237;48.590;8.854;2023-02-22T09:59:14;0.60;;;0.60;;
18224;SDS011;9237;48.590;8.854;2023-02-22T10:01:48;0.60;;;0.60;;
18224;SDS011;9237;48.590;8.854;2023-02-22T10:04:23;0.70;;;0.70;;
18224;SDS011;9237;48.590;8.854;2023-02-22T10:06:59;0.67;;;0.67;;
18224;SDS011;9237;48.590;8.854;2023-02-22T10:09:31;0.70;;;0.70;;
18224;SDS011;9237;48.590;8.854;2023-02-22T10:12:02;0.60;;;0.60;;
18224;SDS011;9237;48.590;8.854;2023-02-22T10:14:53;0.70;;;0.70;;
18224;SDS011;9237;48.590;8.854;2023-02-22T10:17:46;0.70;;;0.70;;
18224;SDS011;9237;48.590;8.854;2023-02-22T10:20:20;0.70;;;0.70;;
18224;SDS011;9237;48.590;8.854;2023-02-22T10:22:59;0.70;;;0.70;;
18224;SDS011;9237;48.590;8.854;2023-02-22T10:25:36;0.70;;;0.70;;
18224;SDS011;9237;48.590;8.854;2023-02-22T10:28:05;0.70;;;0.70;;
18224;SDS011;9237;48.590;8.854;2023-02-22T10:30:38;0.70;;;0.70;;
18224;SDS011;9237;48.590;8.854;2023-02-22T10:33:11;0.70;;;0.70;;
18224;SDS011;9237;48.590;8.854;2023-02-22T10:35:42;0.70;;;0.70;;
18224;SDS011;9237;48.590;8.854;2023-02-22T10:38:11;0.70;;;0.70;;
18224;SDS011;9237;48.590;8.854;2023-02-22T10:40:42;0.70;;;0.70;;
18224;SDS011;9237;48.590;8.854;2023-02-22T10:43:13;0.63;;;0.63;;
18224;SDS011;9237;48.590;8.854;2023-02-22T10:45:39;0.60;;;0.60;;
18224;SDS011;9237;48.590;8.854;2023-02-22T10:48:07;0.70;;;0.70;;
18224;SDS011;9237;48.590;8.854;2023-02-22T10:50:38;0.70;;;0.70;;
18224;SDS011;9237;48.590;8.854;2023-02-22T10:53:07;0.70;;;0.70;;
18224;SDS011;9237;48.590;8.854;2023-02-22T10:55:35;0.70;;;0.70;;
18224;SDS011;9237;48.590;8.854;2023-02-22T10:58:41;0.70;;;0.70;;
18224;SDS011;9237;48.590;8.854;2023-02-22T11:04:02;0.70;;;0.70;;
18224;SDS011;9237;48.590;8.854;2023-02-22T11:06:35;0.70;;;0.70;;
18224;SDS011;9237;48.590;8.854;2023-02-22T11:09:03;0.60;;;0.60;;
18224;SDS011;9237;48.590;8.854;2023-02-22T11:11:37;0.70;;;0.70;;
18224;SDS011;9237;48.590;8.854;2023-02-22T11:14:05;0.70;;;0.70;;
18224;SDS011;9237;48.590;8.854;2023-02-22T11:16:35;0.63;;;0.63;;
18224;SDS011;9237;48.590;8.854;2023-02-22T11:19:06;0.50;;;0.50;;
18224;SDS011;9237;48.590;8.854;2023-02-22T11:21:44;0.60;;;0.60;;
18224;SDS011;9237;48.590;8.854;2023-02-22T11:24:12;0.60;;;0.60;;
18224;SDS011;9237;48.590;8.854;2023-02-22T11:26:42;0.60;;;0.60;;
18224;SDS011;9237;48.590;8.854;2023-02-22T11:29:17;0.60;;;0.60;;
18224;SDS011;9237;48.590;8.854;2023-02-22T11:31:47;0.60;;;0.60;;
18224;SDS011;9237;48.590;8.854;2023-02-22T11:34:28;0.60;;;0.60;;
18224;SDS011;9237;48.590;8.854;2023-02-22T11:37:13;0.60;;;0.60;;
18224;SDS011;9237;48.590;8.854;2023-02-22T11:40:02;0.60;;;0.60;;
18224;SDS011;9237;48.590;8.854;2023-02-22T11:42:39;0.60;;;0.60;;
18224;SDS011;9237;48.590;8.854;2023-02-22T11:45:10;0.60;;;0.60;;
18224;SDS011;9237;48.590;8.854;2023-02-22T11:47:52;0.60;;;0.60;;
18224;SDS011;9237;48.590;8.854;2023-02-22T11:50:21;0.70;;;0.70;;
18224;SDS011;9237;48.590;8.854;2023-02-22T11:52:56;0.60;;;0.60;;
18224;SDS011;9237;48.590;8.854;2023-02-22T11:55:35;0.60;;;0.60;;
18224;SDS011;9237;48.590;8.854;2023-02-22T11:58:24;0.60;;;0.60;;
18224;SDS011;9237;48.590;8.854;2023-02-22T12:01:00;0.67;;;0.67;;
18224;SDS011;9237;48.590;8.854;2023-02-22T12:06:32;0.70;;;0.70;;
18224;SDS011;9237;48.590;8.854;2023-02-22T12:09:11;0.63;;;0.63;;
18224;SDS011;9237;48.590;8.854;2023-02-22T12:11:49;0.60;;;0.60;;
18224;SDS011;9237;48.590;8.854;2023-02-22T12:14:27;0.60;;;0.60;;
18224;SDS011;9237;48.590;8.854;2023-02-22T12:17:06;0.60;;;0.60;;
18224;SDS011;9237;48.590;8.854;2023-02-22T12:19:45;0.60;;;0.60;;
18224;SDS011;9237;48.590;8.854;2023-02-22T12:22:15;0.70;;;0.70;;
18224;SDS011;9237;48.590;8.854;2023-02-22T12:24:46;0.60;;;0.60;;
18224;SDS011;9237;48.590;8.854;2023-02-22T12:27:19;0.60;;;0.60;;
18224;SDS011;9237;48.590;8.854;2023-02-22T12:29:53;0.60;;;0.60;;
18224;SDS011;9237;48.590;8.854;2023-02-22T12:32:27;0.60;;;0.60;;
18224;SDS011;9237;48.590;8.854;2023-02-22T12:35:02;0.60;;;0.60;;
18224;SDS011;9237;48.590;8.854;2023-02-22T12:37:39;0.70;;;0.70;;
18224;SDS011;9237;48.590;8.854;2023-02-22T12:40:18;0.50;;;0.50;;
18224;SDS011;9237;48.590;8.854;2023-02-22T12:42:52;0.60;;;0.60;;
18224;SDS011;9237;48.590;8.854;2023-02-22T12:45:27;0.70;;;0.70;;
18224;SDS011;9237;48.590;8.854;2023-02-22T12:48:03;0.60;;;0.60;;
18224;SDS011;9237;48.590;8.854;2023-02-22T12:50:45;0.60;;;0.60;;
18224;SDS011;9237;48.590;8.854;2023-02-22T12:53:16;0.60;;;0.60;;
18224;SDS011;9237;48.590;8.854;2023-02-22T12:55:48;0.60;;;0.60;;
18224;SDS011;9237;48.590;8.854;2023-02-22T12:58:18;0.60;;;0.60;;
18224;SDS011;9237;48.590;8.854;2023-02-22T13:00:54;0.60;;;0.60;;
18224;SDS011;9237;48.590;8.854;2023-02-22T13:03:26;0.60;;;0.60;;
18224;SDS011;9237;48.590;8.854;2023-02-22T13:06:00;0.60;;;0.60;;
18224;SDS011;9237;48.590;8.854;2023-02-22T13:08:40;0.60;;;0.60;;
18224;SDS011;9237;48.590;8.854;2023-02-22T13:11:20;0.60;;;0.60;;
18224;SDS011;9237;48.590;8.854;2023-02-22T13:13:59;0.60;;;0.60;;
18224;SDS011;9237;48.590;8.854;2023-02-22T13:16:43;0.60;;;0.60;;
18224;SDS011;9237;48.590;8.854;2023-02-22T13:19:20;0.53;;;0.53;;
18224;SDS011;9237;48.590;8.854;2023-02-22T13:21:56;0.60;;;0.60;;
18224;SDS011;9237;48.590;8.854;2023-02-22T13:24:29;0.60;;;0.60;;
18224;SDS011;9237;48.590;8.854;2023-02-22T13:27:05;0.60;;;0.60;;
18224;SDS011;9237;48.590;8.854;2023-02-22T13:29:37;0.60;;;0.60;;
18224;SDS011;9237;48.590;8.854;2023-02-22T13:35:07;0.60;;;0.60;;
18224;SDS011;9237;48.590;8.854;2023-02-22T13:38:00;0.60;;;0.60;;
18224;SDS011;9237;48.590;8.854;2023-02-22T13:40:45;0.60;;;0.60;;
18224;SDS011;9237;48.590;8.854;2023-02-22T13:43:33;0.60;;;0.60;;
18224;SDS011;9237;48.590;8.854;2023-02-22T13:46:21;0.60;;;0.60;;
18224;SDS011;9237;48.590;8.854;2023-02-22T13:49:05;0.60;;;0.60;;
18224;SDS011;9237;48.590;8.854;2023-02-22T13:51:45;0.60;;;0.60;;
18224;SDS011;9237;48.590;8.854;2023-02-22T13:54:19;0.60;;;0.60;;
18224;SDS011;9237;48.590;8.854;2023-02-22T13:56:50;0.60;;;0.60;;
18224;SDS011;9237;48.590;8.854;2023-02-22T13:59:26;0.60;;;0.60;;
18224;SDS011;9237;48.590;8.854;2023-02-22T14:01:55;0.60;;;0.60;;
18224;SDS011;9237;48.590;8.854;2023-02-22T14:10:38;0.60;;;0.60;;
18224;SDS011;9237;48.590;8.854;2023-02-22T14:13:11;0.50;;;0.50;;
18224;SDS011;9237;48.590;8.854;2023-02-22T14:18:39;0.50;;;0.50;;
18224;SDS011;9237;48.590;8.854;2023-02-22T14:21:09;0.60;;;0.60;;
18224;SDS011;9237;48.590;8.854;2023-02-22T14:23:38;0.50;;;0.50;;
18224;SDS011;9237;48.590;8.854;2023-02-22T14:26:10;0.60;;;0.60;;
18224;SDS011;9237;48.590;8.854;2023-02-22T14:28:41;0.60;;;0.60;;
18224;SDS011;9237;48.590;8.854;2023-02-22T14:31:18;0.60;;;0.60;;
18224;SDS011;9237;48.590;8.854;2023-02-22T14:36:38;0.60;;;0.60;;
18224;SDS011;9237;48.590;8.854;2023-02-22T14:39:16;0.60;;;0.60;;
18224;SDS011;9237;48.590;8.854;2023-02-22T14:41:52;0.50;;;0.50;;
18224;SDS011;9237;48.590;8.854;2023-02-22T14:44:26;0.50;;;0.50;;
18224;SDS011;9237;48.590;8.854;2023-02-22T14:46:59;0.60;;;0.60;;
18224;SDS011;9237;48.590;8.854;2023-02-22T14:49:31;0.50;;;0.50;;
18224;SDS011;9237;48.590;8.854;2023-02-22T14:52:10;0.50;;;0.50;;
18224;SDS011;9237;48.590;8.854;2023-02-22T14:54:53;0.50;;;0.50;;
18224;SDS011;9237;48.590;8.854;2023-02-22T14:57:29;0.50;;;0.50;;
18224;SDS011;9237;48.590;8.854;2023-02-22T15:00:05;0.60;;;0.60;;
18224;SDS011;9237;48.590;8.854;2023-02-22T15:02:45;0.60;;;0.60;;
18224;SDS011;9237;48.590;8.854;2023-02-22T15:05:12;0.57;;;0.57;;
18224;SDS011;9237;48.590;8.854;2023-02-22T15:07:50;0.60;;;0.60;;
18224;SDS011;9237;48.590;8.854;2023-02-22T15:10:19;0.60;;;0.60;;
18224;SDS011;9237;48.590;8.854;2023-02-22T15:12:49;0.60;;;0.60;;
18224;SDS011;9237;48.590;8.854;2023-02-22T15:15:18;0.70;;;0.70;;
18224;SDS011;9237;48.590;8.854;2023-02-22T15:17:47;0.60;;;0.60;;
18224;SDS011;9237;48.590;8.854;2023-02-22T15:20:18;0.60;;;0.60;;
18224;SDS011;9237;48.590;8.854;2023-02-22T15:22:47;0.70;;;0.70;;
18224;SDS011;9237;48.590;8.854;2023-02-22T15:25:17;0.60;;;0.60;;
18224;SDS011;9237;48.590;8.854;2023-02-22T15:27:50;0.70;;;0.70;;
18224;SDS011;9237;48.590;8.854;2023-02-22T15:30:18;0.60;;;0.60;;
18224;SDS011;9237;48.590;8.854;2023-02-22T15:32:47;0.60;;;0.60;;
18224;SDS011;9237;48.590;8.854;2023-02-22T15:35:15;0.60;;;0.60;;
18224;SDS011;9237;48.590;8.854;2023-02-22T15:37:44;0.70;;;0.70;;
18224;SDS011;9237;48.590;8.854;2023-02-22T15:40:13;0.70;;;0.70;;
18224;SDS011;9237;48.590;8.854;2023-02-22T15:42:43;0.63;;;0.63;;
18224;SDS011;9237;48.590;8.854;2023-02-22T15:45:15;0.70;;;0.70;;